createdAt,value
2023-03-17T00:00:53.652Z,4.40
2023-03-17T00:02:53.689Z,4.30
2023-03-17T00:04:53.591Z,4.30
2023-03-17T00:06:53.591Z,4.30
2023-03-17T00:08:53.653Z,4.30
2023-03-17T00:10:53.689Z,4.30
2023-03-17T00:12:53.578Z,4.40
2023-03-17T00:14:53.589Z,4.40
2023-03-17T00:16:53.580Z,4.40
2023-03-17T00:18:53.564Z,4.30
2023-03-17T00:20:53.572Z,4.30
2023-03-17T00:22:53.683Z,4.30
2023-03-17T00:24:53.555Z,4.30
2023-03-17T00:26:53.605Z,4.30
2023-03-17T00:28:53.566Z,4.30
2023-03-17T00:30:53.637Z,4.30
2023-03-17T00:32:53.645Z,4.30
2023-03-17T00:34:53.577Z,4.30
2023-03-17T00:36:53.592Z,4.20
2023-03-17T00:38:53.582Z,4.10
2023-03-17T00:40:53.589Z,4.10
2023-03-17T00:42:53.573Z,4.00
2023-03-17T00:44:53.589Z,4.00
2023-03-17T00:46:53.649Z,4.10
2023-03-17T00:48:53.575Z,4.00
2023-03-17T00:50:53.676Z,4.00
2023-03-17T00:52:53.589Z,4.00
2023-03-17T00:54:53.664Z,4.00
2023-03-17T00:56:53.629Z,4.00
2023-03-17T00:58:53.601Z,4.00
2023-03-17T01:00:53.700Z,4.00
2023-03-17T01:02:53.570Z,4.00
2023-03-17T01:05:03.966Z,3.90
2023-03-17T01:06:53.723Z,3.90
2023-03-17T01:08:53.568Z,3.90
2023-03-17T01:10:53.625Z,4.10
2023-03-17T01:12:53.600Z,4.10
2023-03-17T01:14:53.596Z,4.10
2023-03-17T01:16:53.625Z,4.10
2023-03-17T01:18:53.627Z,4.10
2023-03-17T01:20:53.600Z,4.10
2023-03-17T01:22:53.591Z,4.10
2023-03-17T01:24:53.617Z,4.10
2023-03-17T01:26:53.607Z,4.10
2023-03-17T01:28:53.724Z,4.10
2023-03-17T01:30:53.588Z,4.00
2023-03-17T01:32:53.670Z,4.00
2023-03-17T01:34:53.608Z,4.00
2023-03-17T01:37:23.612Z,3.90
2023-03-17T01:39:23.714Z,3.90
2023-03-17T01:41:23.597Z,3.90
2023-03-17T01:43:23.751Z,3.90
2023-03-17T01:45:23.765Z,3.90
2023-03-17T01:47:23.669Z,3.90
2023-03-17T01:49:23.653Z,3.90
2023-03-17T01:51:23.683Z,3.90
2023-03-17T01:53:23.620Z,3.90
2023-03-17T01:55:23.621Z,3.90
2023-03-17T01:57:23.618Z,3.90
2023-03-17T01:59:23.781Z,3.90
2023-03-17T02:01:23.642Z,3.90
2023-03-17T02:03:23.676Z,3.90
2023-03-17T02:05:23.700Z,3.80
2023-03-17T02:07:23.663Z,3.80
2023-03-17T02:09:23.729Z,3.80
2023-03-17T02:11:23.624Z,3.80
2023-03-17T02:13:23.685Z,3.80
2023-03-17T02:15:23.647Z,3.90
2023-03-17T02:17:23.657Z,3.90
2023-03-17T02:19:23.695Z,3.90
2023-03-17T02:21:23.623Z,3.90
2023-03-17T02:23:23.644Z,3.90
2023-03-17T02:25:23.740Z,3.90
2023-03-17T02:27:23.618Z,3.90
2023-03-17T02:29:23.626Z,3.90
2023-03-17T02:31:23.670Z,3.80
2023-03-17T02:33:23.793Z,3.80
2023-03-17T02:35:23.704Z,3.80
2023-03-17T02:37:23.709Z,3.80
2023-03-17T02:39:23.633Z,3.80
2023-03-17T02:41:23.651Z,3.80
2023-03-17T02:43:23.702Z,3.80
2023-03-17T02:45:23.670Z,3.80
2023-03-17T02:47:23.689Z,3.80
2023-03-17T02:49:23.702Z,3.80
2023-03-17T02:51:23.674Z,3.80
2023-03-17T02:53:23.746Z,3.80
2023-03-17T02:55:23.709Z,3.90
2023-03-17T02:57:23.760Z,3.90
2023-03-17T02:59:23.763Z,3.80
2023-03-17T03:01:23.693Z,3.80
2023-03-17T03:03:23.649Z,3.90
2023-03-17T03:05:23.658Z,3.90
2023-03-17T03:07:23.675Z,3.80
2023-03-17T03:09:23.663Z,3.80
2023-03-17T03:11:23.656Z,3.80
2023-03-17T03:13:23.788Z,3.80
2023-03-17T03:15:23.685Z,3.80
2023-03-17T03:17:23.656Z,3.80
2023-03-17T03:19:23.706Z,3.80
2023-03-17T03:21:23.703Z,3.70
2023-03-17T03:23:23.672Z,3.70
2023-03-17T03:25:23.787Z,3.70
2023-03-17T03:27:23.719Z,3.70
2023-03-17T03:29:53.716Z,3.70
2023-03-17T03:31:53.704Z,3.70
2023-03-17T03:33:53.680Z,3.70
2023-03-17T03:35:53.835Z,3.50
2023-03-17T03:37:53.660Z,3.50
2023-03-17T03:39:53.798Z,3.50
2023-03-17T03:41:53.684Z,3.50
2023-03-17T03:43:53.809Z,3.50
2023-03-17T03:45:53.689Z,3.50
2023-03-17T03:47:53.665Z,3.50
2023-03-17T03:49:53.703Z,3.50
2023-03-17T03:51:53.696Z,3.70
2023-03-17T03:53:53.703Z,3.80
2023-03-17T03:55:53.691Z,3.90
2023-03-17T03:57:53.714Z,3.90
2023-03-17T03:59:53.693Z,3.90
2023-03-17T04:01:53.739Z,3.90
2023-03-17T04:03:53.663Z,3.90
2023-03-17T04:05:53.688Z,3.90
2023-03-17T04:07:53.699Z,3.80
2023-03-17T04:09:53.680Z,3.80
2023-03-17T04:11:53.696Z,3.90
2023-03-17T04:13:53.676Z,3.90
2023-03-17T04:15:53.777Z,3.90
2023-03-17T04:17:53.677Z,3.90
2023-03-17T04:19:53.706Z,3.80
2023-03-17T04:21:54.754Z,3.80
2023-03-17T04:23:53.719Z,3.90
2023-03-17T04:25:53.732Z,3.90
2023-03-17T04:27:53.702Z,3.90
2023-03-17T04:29:53.684Z,3.90
2023-03-17T04:31:53.834Z,3.90
2023-03-17T04:33:53.696Z,3.90
2023-03-17T04:35:53.789Z,3.90
2023-03-17T04:37:53.719Z,3.90
2023-03-17T04:39:53.797Z,3.90
2023-03-17T04:41:53.716Z,3.90
2023-03-17T04:43:53.696Z,3.90
2023-03-17T04:45:53.816Z,3.90
2023-03-17T04:47:53.775Z,3.90
2023-03-17T04:49:53.776Z,3.90
2023-03-17T04:51:53.741Z,3.60
2023-03-17T04:53:53.807Z,3.60
2023-03-17T04:55:53.844Z,3.50
2023-03-17T04:57:53.856Z,3.50
2023-03-17T04:59:53.735Z,3.20
2023-03-17T05:01:53.801Z,3.10
2023-03-17T05:03:53.778Z,3.10
2023-03-17T05:05:53.783Z,3.00
2023-03-17T05:07:53.717Z,2.90
2023-03-17T05:09:53.721Z,2.90
2023-03-17T05:11:53.730Z,2.90
2023-03-17T05:13:53.712Z,2.70
2023-03-17T05:15:53.735Z,2.70
2023-03-17T05:17:53.783Z,2.70
2023-03-17T05:19:53.739Z,2.70
2023-03-17T05:21:53.917Z,2.70
2023-03-17T05:24:23.935Z,2.50
2023-03-17T05:26:23.791Z,2.50
2023-03-17T05:28:23.797Z,2.60
2023-03-17T05:30:23.890Z,2.60
2023-03-17T05:32:23.815Z,2.60
2023-03-17T05:34:23.780Z,2.60
2023-03-17T05:36:23.805Z,2.60
2023-03-17T05:38:23.736Z,2.50
2023-03-17T05:40:23.970Z,2.50
2023-03-17T05:42:23.862Z,2.40
2023-03-17T05:44:23.754Z,2.30
2023-03-17T05:46:23.839Z,2.40
2023-03-17T05:48:23.886Z,2.30
2023-03-17T05:50:23.803Z,2.30
2023-03-17T05:52:23.822Z,2.30
2023-03-17T05:54:23.853Z,2.30
2023-03-17T05:56:23.912Z,2.30
2023-03-17T05:58:23.882Z,2.40
2023-03-17T06:00:23.881Z,2.40
2023-03-17T06:02:32.909Z,2.80
2023-03-17T06:04:32.784Z,2.80
2023-03-17T06:06:33.945Z,2.80
2023-03-17T06:08:32.853Z,2.80
2023-03-17T06:10:33.326Z,3.20
2023-03-17T06:12:32.912Z,3.20
2023-03-17T06:14:32.783Z,3.20
2023-03-17T06:16:32.808Z,3.10
2023-03-17T06:18:33.857Z,3.10
2023-03-17T06:20:32.823Z,3.00
2023-03-17T06:22:32.769Z,3.00
2023-03-17T06:24:32.860Z,3.00
2023-03-17T06:26:32.853Z,3.00
2023-03-17T06:28:32.899Z,3.00
2023-03-17T06:30:32.956Z,2.90
2023-03-17T06:32:32.840Z,2.90
2023-03-17T06:34:32.772Z,2.80
2023-03-17T06:36:32.792Z,2.80
2023-03-17T06:38:32.780Z,2.80
2023-03-17T06:40:32.806Z,2.90
2023-03-17T06:42:32.785Z,3.00
2023-03-17T06:44:32.804Z,3.20
2023-03-17T06:46:32.812Z,3.20
2023-03-17T06:48:32.825Z,3.20
2023-03-17T06:50:32.780Z,3.90
2023-03-17T06:52:32.790Z,4.30
2023-03-17T06:54:32.787Z,4.40
2023-03-17T06:56:32.784Z,4.40
2023-03-17T06:58:32.793Z,4.60
2023-03-17T07:00:32.805Z,4.80
2023-03-17T07:02:32.798Z,4.90
2023-03-17T07:04:32.862Z,4.90
2023-03-17T07:06:32.784Z,4.90
2023-03-17T07:08:32.784Z,4.90
2023-03-17T07:10:32.801Z,5.20
2023-03-17T07:12:32.790Z,5.10
2023-03-17T07:14:32.812Z,5.10
2023-03-17T07:16:32.839Z,5.20
2023-03-17T07:18:32.834Z,5.20
2023-03-17T07:20:32.830Z,5.30
2023-03-17T07:22:32.816Z,5.40
2023-03-17T07:24:32.962Z,5.40
2023-03-17T07:26:32.849Z,5.40
2023-03-17T07:28:32.838Z,5.40
2023-03-17T07:30:32.870Z,5.60
2023-03-17T07:32:32.841Z,5.60
2023-03-17T07:34:32.830Z,5.60
2023-03-17T07:36:32.795Z,5.80
2023-03-17T07:38:32.807Z,5.80
2023-03-17T07:40:35.257Z,5.80
2023-03-17T07:42:32.807Z,5.80
2023-03-17T07:44:32.802Z,5.80
2023-03-17T07:46:32.843Z,5.90
2023-03-17T07:48:32.855Z,6.00
2023-03-17T07:51:02.802Z,6.10
2023-03-17T07:53:02.820Z,6.40
2023-03-17T07:55:02.913Z,6.60
2023-03-17T07:57:02.805Z,6.60
2023-03-17T07:59:02.846Z,6.60
2023-03-17T08:01:02.866Z,7.20
2023-03-17T08:03:10.327Z,7.50
2023-03-17T08:05:02.804Z,7.50
2023-03-17T08:07:02.826Z,7.50
2023-03-17T08:09:02.903Z,7.50
2023-03-17T08:11:02.833Z,8.50
2023-03-17T08:13:02.839Z,8.80
2023-03-17T08:15:02.833Z,8.80
2023-03-17T08:17:02.870Z,9.00
2023-03-17T08:19:02.879Z,9.30
2023-03-17T08:21:02.886Z,9.50
2023-03-17T08:23:02.833Z,9.70
2023-03-17T08:25:02.876Z,9.70
2023-03-17T08:27:02.865Z,9.90
2023-03-17T08:29:03.862Z,10.00
2023-03-17T08:31:02.901Z,10.10
2023-03-17T08:33:02.944Z,10.40
2023-03-17T08:35:02.908Z,10.40
2023-03-17T08:37:02.876Z,10.50
2023-03-17T08:39:02.846Z,10.60
2023-03-17T08:41:02.855Z,10.60
2023-03-17T08:43:02.843Z,10.60
2023-03-17T08:45:02.842Z,10.60
2023-03-17T08:47:02.903Z,10.60
2023-03-17T08:49:02.846Z,10.60
2023-03-17T08:51:02.887Z,10.40
2023-03-17T08:53:02.855Z,10.40
2023-03-17T08:55:02.882Z,10.50
2023-03-17T08:57:02.859Z,10.60
2023-03-17T08:59:02.865Z,10.60
2023-03-17T09:01:02.957Z,10.90
2023-03-17T09:03:02.960Z,10.90
2023-03-17T09:05:02.905Z,11.20
2023-03-17T09:07:04.200Z,11.70
2023-03-17T09:09:02.887Z,12.20
2023-03-17T09:11:02.928Z,12.20
2023-03-17T09:13:03.053Z,12.50
2023-03-17T09:15:02.887Z,12.60
2023-03-17T09:17:05.410Z,12.80
2023-03-17T09:19:02.898Z,12.80
2023-03-17T09:21:02.891Z,12.80
2023-03-17T09:23:02.917Z,13.30
2023-03-17T09:25:03.009Z,13.60
2023-03-17T09:27:02.884Z,13.50
2023-03-17T09:29:03.862Z,13.50
2023-03-17T09:31:02.937Z,13.50
2023-03-17T09:33:02.939Z,13.80
2023-03-17T09:35:02.913Z,13.90
2023-03-17T09:37:02.930Z,14.60
2023-03-17T09:39:02.950Z,14.60
2023-03-17T09:41:02.888Z,14.80
2023-03-17T09:43:03.001Z,15.00
2023-03-17T09:45:02.914Z,15.40
2023-03-17T09:47:02.892Z,15.80
2023-03-17T09:49:32.922Z,15.80
2023-03-17T09:51:32.952Z,16.00
2023-03-17T09:53:32.880Z,15.90
2023-03-17T09:55:33.386Z,15.40
2023-03-17T09:57:33.000Z,15.60
2023-03-17T09:59:32.931Z,15.60
2023-03-17T10:01:32.938Z,15.60
2023-03-17T10:03:32.922Z,16.10
2023-03-17T10:05:33.107Z,16.00
2023-03-17T10:07:32.912Z,16.10
2023-03-17T10:09:32.954Z,16.10
2023-03-17T10:11:32.930Z,16.10
2023-03-17T10:13:32.915Z,16.40
2023-03-17T10:15:33.457Z,16.30
2023-03-17T10:17:33.053Z,16.30
2023-03-17T10:19:32.965Z,15.80
2023-03-17T10:21:32.964Z,15.70
2023-03-17T10:23:32.946Z,16.00
2023-03-17T10:25:33.305Z,16.40
2023-03-17T10:27:32.969Z,16.40
2023-03-17T10:29:32.936Z,17.10
2023-03-17T10:31:33.133Z,17.50
2023-03-17T10:33:32.947Z,17.60
2023-03-17T10:35:33.333Z,17.20
2023-03-17T10:37:33.006Z,17.20
2023-03-17T10:39:33.088Z,16.50
2023-03-17T10:41:33.170Z,17.00
2023-03-17T10:43:32.949Z,17.20
2023-03-17T10:45:32.966Z,17.20
2023-03-17T10:47:32.980Z,17.00
2023-03-17T10:49:32.972Z,16.90
2023-03-17T10:51:33.012Z,16.90
2023-03-17T10:53:32.997Z,17.30
2023-03-17T10:55:32.993Z,17.30
2023-03-17T10:57:33.008Z,17.30
2023-03-17T10:59:33.322Z,17.40
2023-03-17T11:01:32.995Z,17.20
2023-03-17T11:03:33.005Z,17.30
2023-03-17T11:05:33.008Z,17.30
2023-03-17T11:07:33.096Z,17.40
2023-03-17T11:09:32.976Z,17.70
2023-03-17T11:11:33.000Z,18.00
2023-03-17T11:13:33.071Z,18.00
2023-03-17T11:15:33.027Z,18.30
2023-03-17T11:17:33.015Z,18.20
2023-03-17T11:19:32.995Z,18.70
2023-03-17T11:21:33.127Z,19.00
2023-03-17T11:23:33.003Z,19.00
2023-03-17T11:25:33.109Z,18.60
2023-03-17T11:27:33.037Z,18.70
2023-03-17T11:29:33.125Z,19.00
2023-03-17T11:31:33.058Z,19.00
2023-03-17T11:33:33.036Z,19.00
2023-03-17T11:35:33.143Z,19.00
2023-03-17T11:37:33.133Z,19.40
2023-03-17T11:39:33.142Z,20.10
2023-03-17T11:41:33.040Z,20.10
2023-03-17T11:43:33.040Z,20.30
2023-03-17T11:45:33.008Z,20.20
2023-03-17T11:47:33.001Z,19.90
2023-03-17T11:49:33.092Z,19.90
2023-03-17T11:51:33.122Z,19.90
2023-03-17T11:54:03.116Z,20.00
2023-03-17T11:56:03.047Z,20.00
2023-03-17T11:58:03.062Z,20.00
2023-03-17T12:00:03.004Z,19.40
2023-03-17T12:02:03.017Z,19.50
2023-03-17T12:04:03.160Z,19.20
2023-03-17T12:06:03.041Z,19.20
2023-03-17T12:08:03.028Z,19.00
2023-03-17T12:10:03.060Z,19.00
2023-03-17T12:12:03.035Z,19.00
2023-03-17T12:14:03.047Z,19.00
2023-03-17T12:16:03.075Z,18.80
2023-03-17T12:18:03.053Z,18.60
2023-03-17T12:20:03.073Z,18.60
2023-03-17T12:22:03.101Z,18.70
2023-03-17T12:24:03.043Z,18.70
2023-03-17T12:26:03.064Z,19.00
2023-03-17T12:28:03.213Z,18.90
2023-03-17T12:30:03.175Z,18.90
2023-03-17T12:32:03.160Z,19.00
2023-03-17T12:34:03.166Z,19.00
2023-03-17T12:36:03.162Z,19.30
2023-03-17T12:38:03.170Z,19.20
2023-03-17T12:40:03.233Z,19.60
2023-03-17T12:42:03.093Z,19.60
2023-03-17T12:44:03.099Z,19.40
2023-03-17T12:46:03.277Z,19.10
2023-03-17T12:48:03.128Z,19.20
2023-03-17T12:50:03.102Z,19.60
2023-03-17T12:54:10.944Z,19.60
2023-03-17T12:56:11.029Z,20.20
2023-03-17T12:58:10.970Z,20.60
2023-03-17T13:00:11.079Z,20.60
2023-03-17T13:02:11.064Z,20.60
2023-03-17T13:04:11.005Z,20.60
2023-03-17T13:06:11.010Z,20.60
2023-03-17T13:08:11.094Z,20.00
2023-03-17T13:10:11.072Z,20.10
2023-03-17T13:12:10.979Z,20.10
2023-03-17T13:14:10.964Z,19.80
2023-03-17T13:16:11.106Z,19.80
2023-03-17T13:18:10.964Z,19.80
2023-03-17T13:20:11.164Z,19.80
2023-03-17T13:22:11.070Z,19.80
2023-03-17T13:24:11.077Z,19.80
2023-03-17T13:26:10.935Z,19.70
2023-03-17T13:28:11.298Z,19.80
2023-03-17T13:30:11.025Z,19.80
2023-03-17T13:32:10.952Z,19.80
2023-03-17T13:34:11.015Z,19.80
2023-03-17T13:36:11.174Z,19.40
2023-03-17T13:38:11.072Z,19.40
2023-03-17T13:40:11.260Z,19.40
2023-03-17T13:42:17.895Z,19.30
2023-03-17T13:44:10.967Z,19.50
2023-03-17T13:46:11.039Z,19.50
2023-03-17T13:48:11.078Z,19.50
2023-03-17T13:50:11.053Z,19.50
2023-03-17T13:52:10.995Z,19.70
2023-03-17T13:54:11.064Z,19.70
2023-03-17T13:56:11.200Z,19.20
2023-03-17T13:58:11.968Z,19.20
2023-03-17T14:00:11.006Z,19.00
2023-03-17T14:02:11.013Z,19.00
2023-03-17T14:04:11.232Z,18.70
2023-03-17T14:06:11.003Z,18.70
2023-03-17T14:08:11.148Z,18.70
2023-03-17T14:10:11.145Z,18.70
2023-03-17T14:12:11.026Z,18.70
2023-03-17T14:14:15.154Z,18.70
2023-03-17T14:18:13.009Z,18.30
2023-03-17T14:22:11.072Z,18.40
2023-03-17T14:24:11.124Z,18.60
2023-03-17T14:26:11.121Z,18.60
2023-03-17T14:28:41.079Z,18.70
2023-03-17T14:30:41.149Z,18.50
2023-03-17T14:32:41.059Z,18.40
2023-03-17T14:34:41.289Z,18.40
2023-03-17T14:36:41.073Z,18.40
2023-03-17T14:38:41.098Z,18.00
2023-03-17T14:40:42.144Z,17.80
2023-03-17T14:42:41.130Z,17.80
2023-03-17T14:44:41.072Z,17.80
2023-03-17T14:46:41.167Z,17.70
2023-03-17T14:48:41.176Z,17.80
2023-03-17T14:50:41.095Z,17.80
2023-03-17T14:52:41.093Z,17.80
2023-03-17T14:54:41.157Z,17.80
2023-03-17T14:56:41.119Z,17.80
2023-03-17T14:58:41.205Z,17.70
2023-03-17T15:00:41.208Z,17.70
2023-03-17T15:02:41.365Z,17.80
2023-03-17T15:04:41.309Z,17.80
2023-03-17T15:06:41.048Z,17.60
2023-03-17T15:08:41.161Z,17.60
2023-03-17T15:10:41.122Z,17.60
2023-03-17T15:12:41.147Z,17.50
2023-03-17T15:14:41.088Z,17.50
2023-03-17T15:16:41.188Z,17.20
2023-03-17T15:18:41.084Z,17.10
2023-03-17T15:20:41.078Z,17.10
2023-03-17T15:22:41.106Z,17.10
2023-03-17T15:24:41.054Z,16.80
2023-03-17T15:26:41.183Z,16.80
2023-03-17T15:28:41.158Z,16.70
2023-03-17T15:32:41.202Z,16.80
2023-03-17T15:34:41.153Z,16.80
2023-03-17T15:36:41.177Z,16.80
2023-03-17T15:38:41.049Z,16.80
2023-03-17T15:40:41.302Z,16.70
2023-03-17T15:42:41.085Z,16.70
2023-03-17T15:44:41.056Z,16.60
2023-03-17T15:46:41.073Z,16.40
2023-03-17T15:48:41.080Z,16.20
2023-03-17T15:50:41.099Z,16.20
2023-03-17T15:52:41.091Z,16.10
2023-03-17T15:54:41.169Z,15.90
2023-03-17T15:56:41.158Z,15.80
2023-03-17T15:58:41.192Z,15.60
2023-03-17T16:00:41.187Z,15.60
2023-03-17T16:02:41.130Z,15.50
2023-03-17T16:04:41.255Z,15.40
2023-03-17T16:06:41.134Z,15.30
2023-03-17T16:08:41.154Z,15.20
2023-03-17T16:10:41.416Z,15.20
2023-03-17T16:12:41.162Z,15.20
2023-03-17T16:14:42.075Z,15.20
2023-03-17T16:16:41.249Z,15.20
2023-03-17T16:18:41.484Z,15.20
2023-03-17T16:20:41.416Z,15.00
2023-03-17T16:22:41.530Z,14.90
2023-03-17T16:24:41.577Z,14.80
2023-03-17T16:26:41.284Z,14.70
2023-03-17T16:28:41.338Z,14.70
2023-03-17T16:31:11.384Z,14.50
2023-03-17T16:33:11.246Z,14.50
2023-03-17T16:35:11.196Z,14.40
2023-03-17T16:37:11.144Z,14.30
2023-03-17T16:39:11.171Z,14.20
2023-03-17T16:41:11.202Z,14.20
2023-03-17T16:43:24.216Z,14.20
2023-03-17T16:45:11.235Z,14.00
2023-03-17T16:47:11.183Z,13.90
2023-03-17T16:49:11.131Z,13.90
2023-03-17T16:51:11.262Z,13.90
2023-03-17T16:53:11.129Z,13.80
2023-03-17T16:55:11.210Z,13.80
2023-03-17T16:57:11.193Z,13.80
2023-03-17T16:59:11.191Z,13.60
2023-03-17T17:01:11.240Z,13.60
2023-03-17T17:03:11.389Z,13.50
2023-03-17T17:05:11.135Z,13.40
2023-03-17T17:07:11.148Z,13.40
2023-03-17T17:09:11.194Z,13.40
2023-03-17T17:11:11.688Z,13.40
2023-03-17T17:13:11.334Z,13.20
2023-03-17T17:15:11.456Z,13.20
2023-03-17T17:17:11.307Z,13.20
2023-03-17T17:19:11.167Z,13.20
2023-03-17T17:21:11.275Z,13.00
2023-03-17T17:23:11.428Z,13.00
2023-03-17T17:25:11.446Z,13.00
2023-03-17T17:27:11.471Z,12.80
2023-03-17T17:29:12.157Z,12.80
2023-03-17T17:31:11.712Z,12.70
2023-03-17T17:33:12.465Z,12.50
2023-03-17T17:35:11.403Z,12.50
2023-03-17T17:37:11.304Z,12.50
2023-03-17T17:39:11.257Z,12.50
2023-03-17T17:41:11.480Z,12.50
2023-03-17T17:43:11.280Z,12.30
2023-03-17T17:45:11.440Z,12.40
2023-03-17T17:47:11.325Z,12.40
2023-03-17T17:49:11.402Z,12.40
2023-03-17T17:51:11.286Z,12.50
2023-03-17T17:53:11.180Z,12.50
2023-03-17T17:55:11.276Z,12.50
2023-03-17T17:57:11.213Z,12.50
2023-03-17T17:59:11.313Z,12.40
2023-03-17T18:01:11.273Z,12.40
2023-03-17T18:03:11.286Z,12.50
2023-03-17T18:05:11.192Z,12.50
2023-03-17T18:07:11.305Z,12.50
2023-03-17T18:09:11.214Z,12.50
2023-03-17T18:11:11.220Z,12.60
2023-03-17T18:13:11.414Z,12.60
2023-03-17T18:15:11.388Z,12.60
2023-03-17T18:17:11.261Z,12.60
2023-03-17T18:19:12.925Z,12.60
2023-03-17T18:21:12.206Z,12.50
2023-03-17T18:23:11.216Z,12.40
2023-03-17T18:25:13.310Z,12.40
2023-03-17T18:29:11.223Z,12.40
2023-03-17T18:33:11.323Z,12.20
2023-03-17T18:35:41.267Z,12.20
2023-03-17T18:37:41.226Z,12.20
2023-03-17T18:39:41.248Z,12.30
2023-03-17T18:41:41.338Z,12.30
2023-03-17T18:43:41.333Z,12.30
2023-03-17T18:45:41.334Z,12.30
2023-03-17T18:47:42.377Z,12.20
2023-03-17T18:49:41.303Z,12.10
2023-03-17T18:51:41.323Z,12.00
2023-03-17T18:53:41.219Z,12.00
2023-03-17T18:55:41.227Z,11.80
2023-03-17T18:57:43.915Z,11.80
2023-03-17T18:59:41.296Z,11.80
2023-03-17T19:01:41.231Z,11.10
2023-03-17T19:03:41.365Z,11.10
2023-03-17T19:05:41.328Z,10.80
2023-03-17T19:07:41.405Z,10.70
2023-03-17T19:09:41.319Z,10.60
2023-03-17T19:11:41.264Z,10.40
2023-03-17T19:13:41.250Z,10.40
2023-03-17T19:15:41.364Z,10.40
2023-03-17T19:17:41.286Z,10.30
2023-03-17T19:19:41.363Z,10.20
2023-03-17T19:21:41.394Z,10.20
2023-03-17T19:23:41.234Z,10.20
2023-03-17T19:25:41.272Z,10.30
2023-03-17T19:27:41.368Z,10.30
2023-03-17T19:29:41.333Z,10.30
2023-03-17T19:31:41.362Z,10.30
2023-03-17T19:33:41.333Z,10.20
2023-03-17T19:35:41.344Z,10.20
2023-03-17T19:37:41.333Z,10.10
2023-03-17T19:39:41.474Z,10.10
2023-03-17T19:41:41.335Z,10.10
2023-03-17T19:43:41.808Z,10.30
2023-03-17T19:47:49.756Z,10.60
2023-03-17T19:49:49.640Z,10.90
2023-03-17T19:51:49.633Z,10.80
2023-03-17T19:53:49.664Z,10.80
2023-03-17T19:55:49.649Z,11.00
2023-03-17T19:57:49.700Z,11.00
2023-03-17T19:59:49.814Z,11.00
2023-03-17T20:01:49.749Z,11.00
2023-03-17T20:03:49.864Z,11.00
2023-03-17T20:05:49.618Z,11.00
2023-03-17T20:07:49.700Z,11.10
2023-03-17T20:09:49.748Z,11.10
2023-03-17T20:11:49.719Z,11.10
2023-03-17T20:13:49.708Z,11.10
2023-03-17T20:15:49.737Z,11.10
2023-03-17T20:17:49.716Z,11.10
2023-03-17T20:19:49.702Z,11.10
2023-03-17T20:21:49.979Z,11.10
2023-03-17T20:23:49.678Z,10.90
2023-03-17T20:25:49.715Z,10.90
2023-03-17T20:27:49.674Z,10.90
2023-03-17T20:29:49.739Z,10.80
2023-03-17T20:31:49.714Z,10.80
2023-03-17T20:33:49.684Z,10.80
2023-03-17T20:35:49.753Z,10.70
2023-03-17T20:37:49.687Z,10.70
2023-03-17T20:39:49.709Z,10.70
2023-03-17T20:41:49.734Z,10.70
2023-03-17T20:43:49.744Z,10.70
2023-03-17T20:45:49.708Z,10.70
2023-03-17T20:47:49.732Z,10.60
2023-03-17T20:49:49.806Z,10.60
2023-03-17T20:51:49.682Z,10.60
2023-03-17T20:53:49.723Z,10.50
2023-03-17T20:55:49.713Z,10.40
2023-03-17T20:57:49.744Z,10.50
2023-03-17T20:59:50.656Z,10.50
2023-03-17T21:01:49.724Z,10.50
2023-03-17T21:03:49.775Z,10.40
2023-03-17T21:05:49.790Z,10.40
2023-03-17T21:07:49.687Z,10.40
2023-03-17T21:10:19.737Z,10.40
2023-03-17T21:12:19.755Z,10.30
2023-03-17T21:14:19.773Z,10.30
2023-03-17T21:16:19.865Z,10.30
2023-03-17T21:18:19.755Z,10.20
2023-03-17T21:20:19.760Z,10.20
2023-03-17T21:22:19.814Z,10.20
2023-03-17T21:24:19.715Z,10.20
2023-03-17T21:26:19.793Z,10.20
2023-03-17T21:28:19.723Z,10.20
2023-03-17T21:30:19.769Z,10.20
2023-03-17T21:32:20.719Z,10.20
2023-03-17T21:34:21.112Z,10.20
2023-03-17T21:36:19.741Z,10.10
2023-03-17T21:38:19.696Z,10.10
2023-03-17T21:40:19.722Z,10.00
2023-03-17T21:42:19.754Z,10.00
2023-03-17T21:44:20.750Z,9.80
2023-03-17T21:46:19.693Z,9.70
2023-03-17T21:48:19.758Z,9.70
2023-03-17T21:50:19.718Z,9.70
2023-03-17T21:52:19.729Z,9.70
2023-03-17T21:54:19.705Z,9.50
2023-03-17T21:56:19.779Z,9.50
2023-03-17T21:58:19.731Z,9.50
2023-03-17T22:00:19.821Z,9.60
2023-03-17T22:02:19.828Z,9.50
2023-03-17T22:04:19.811Z,9.50
2023-03-17T22:06:19.774Z,9.50
2023-03-17T22:08:20.733Z,9.60
2023-03-17T22:10:19.731Z,9.60
2023-03-17T22:12:19.709Z,9.60
2023-03-17T22:14:19.845Z,9.50
2023-03-17T22:16:19.850Z,9.50
2023-03-17T22:18:19.709Z,9.50
2023-03-17T22:20:19.839Z,9.50
2023-03-17T22:22:19.697Z,9.50
2023-03-17T22:24:19.774Z,9.50
2023-03-17T22:26:19.787Z,9.40
2023-03-17T22:28:19.778Z,9.40
2023-03-17T22:30:19.829Z,9.40
2023-03-17T22:32:19.813Z,9.40
2023-03-17T22:34:19.724Z,9.40
2023-03-17T22:36:19.743Z,9.40
2023-03-17T22:38:22.472Z,9.40
2023-03-17T22:40:19.791Z,9.40
2023-03-17T22:42:19.780Z,9.40
2023-03-17T22:44:19.812Z,9.40
2023-03-17T22:46:19.739Z,9.40
2023-03-17T22:48:19.820Z,9.20
2023-03-17T22:50:19.882Z,9.10
2023-03-17T22:52:19.754Z,9.10
2023-03-17T22:54:19.742Z,9.00
2023-03-17T22:56:19.794Z,8.90
2023-03-17T22:58:19.803Z,8.80
2023-03-17T23:00:20.414Z,8.80
2023-03-17T23:02:19.820Z,8.80
2023-03-17T23:04:19.820Z,8.80
2023-03-17T23:06:19.778Z,8.70
2023-03-17T23:08:49.751Z,8.80
2023-03-17T23:10:49.726Z,9.00
2023-03-17T23:12:49.816Z,9.20
2023-03-17T23:14:49.857Z,9.20
2023-03-17T23:16:49.768Z,9.20
2023-03-17T23:18:49.851Z,9.30
2023-03-17T23:20:49.754Z,9.30
2023-03-17T23:22:49.893Z,9.20
2023-03-17T23:24:49.759Z,9.20
2023-03-17T23:26:49.805Z,9.20
2023-03-17T23:28:49.723Z,9.10
2023-03-17T23:30:49.869Z,9.00
2023-03-17T23:32:49.826Z,8.90
2023-03-17T23:34:49.850Z,8.90
2023-03-17T23:36:49.736Z,8.80
2023-03-17T23:38:49.736Z,8.80
2023-03-17T23:40:49.778Z,8.80
2023-03-17T23:42:49.818Z,8.80
2023-03-17T23:44:49.806Z,8.80
2023-03-17T23:46:49.739Z,8.80
2023-03-17T23:48:49.825Z,8.80
2023-03-17T23:50:49.795Z,8.80
2023-03-17T23:52:49.763Z,8.80
2023-03-17T23:54:49.743Z,8.80
2023-03-17T23:56:49.750Z,8.80
2023-03-17T23:58:49.851Z,8.60
